Time;durP1;ratioP1;P1;durP2;ratioP2;P2;SDS_P1;SDS_P2;PMS_P1;PMS_P2;Temp;Humidity;BMP_temperature;BMP_pressure;BME280_temperature;BME280_humidity;BME280_pressure;Samples;Min_cycle;Max_cycle;Signal;HPM_P1;HPM_P2
2022/12/07 00:01:35;;;;;;;17.60;6.23;;;;;;;3.84;100.00;96234.19;5056990;28;20704;-71
2022/12/07 00:04:04;;;;;;;14.23;5.50;;;;;;;3.96;100.00;96237.50;5057187;28;20664;-71
2022/12/07 00:06:31;;;;;;;11.73;5.63;;;;;;;3.82;100.00;96236.13;5057159;28;20270;-71
2022/12/07 00:08:58;;;;;;;16.70;5.60;;;;;;;3.84;100.00;96229.00;5057095;28;20210;-71
2022/12/07 00:11:25;;;;;;;14.73;5.87;;;;;;;3.91;100.00;96227.50;5057362;28;21103;-71
2022/12/07 00:13:53;;;;;;;11.67;5.40;;;;;;;3.97;100.00;96232.16;5056671;28;20212;-71
2022/12/07 00:16:21;;;;;;;13.07;5.47;;;;;;;3.94;100.00;96232.44;5057372;28;20239;-71
2022/12/07 00:18:47;;;;;;;16.03;6.13;;;;;;;3.82;100.00;96225.72;5057077;28;20208;-71
2022/12/07 00:21:17;;;;;;;11.50;5.20;;;;;;;3.96;100.00;96227.91;5057292;28;20365;-71
2022/12/07 00:23:45;;;;;;;13.83;5.97;;;;;;;3.91;100.00;96222.28;5056357;28;20214;-71
2022/12/07 00:26:14;;;;;;;13.07;6.13;;;;;;;3.85;100.00;96219.41;5057099;28;20228;-71
2022/12/07 00:28:40;;;;;;;15.20;6.07;;;;;;;3.80;100.00;96227.63;5058555;28;20223;-71
2022/12/07 00:31:09;;;;;;;10.87;5.80;;;;;;;3.93;100.00;96222.94;5056658;28;20278;-71
2022/12/07 00:33:36;;;;;;;11.93;5.10;;;;;;;3.90;100.00;96227.63;5055526;28;20212;-71
2022/12/07 00:36:04;;;;;;;11.63;5.13;;;;;;;3.83;100.00;96224.75;5057136;28;20227;-72
2022/12/07 00:38:34;;;;;;;16.40;5.87;;;;;;;3.82;100.00;96222.28;5057264;28;20572;-72
2022/12/07 00:41:03;;;;;;;15.27;5.40;;;;;;;3.70;100.00;96228.56;5057031;28;20227;-71
2022/12/07 00:43:30;;;;;;;12.27;5.37;;;;;;;3.65;100.00;96226.41;5056715;28;20207;-71
2022/12/07 00:45:57;;;;;;;14.07;6.17;;;;;;;3.75;100.00;96226.38;5056671;28;20228;-71
2022/12/07 00:48:24;;;;;;;13.90;5.57;;;;;;;3.72;100.00;96224.88;5056430;28;20212;-72
2022/12/07 00:50:52;;;;;;;11.90;5.30;;;;;;;3.87;100.00;96226.13;5057045;28;20604;-71
2022/12/07 00:53:19;;;;;;;10.43;4.87;;;;;;;3.83;100.00;96216.09;5056436;28;20196;-71
2022/12/07 00:55:47;;;;;;;12.17;5.63;;;;;;;3.95;100.00;96215.84;5055906;28;20816;-72
2022/12/07 00:58:13;;;;;;;13.83;5.87;;;;;;;3.89;100.00;96221.59;5056432;28;20211;-71
2022/12/07 01:00:42;;;;;;;14.37;6.43;;;;;;;3.95;100.00;96221.03;5056919;28;20228;-71
2022/12/07 01:03:10;;;;;;;15.13;5.83;;;;;;;3.86;100.00;96221.88;5056342;28;20571;-72
2022/12/07 01:05:36;;;;;;;12.67;5.80;;;;;;;3.88;100.00;96227.78;5054933;28;20227;-71
2022/12/07 01:08:03;;;;;;;13.03;5.97;;;;;;;3.90;100.00;96225.84;5056600;28;20610;-72
2022/12/07 01:10:31;;;;;;;13.23;5.77;;;;;;;3.92;100.00;96221.34;5056670;28;20573;-72
2022/12/07 01:13:00;;;;;;;10.87;5.60;;;;;;;4.01;100.00;96225.72;5056018;28;20208;-72
2022/12/07 01:15:27;;;;;;;13.47;5.50;;;;;;;3.96;100.00;96214.88;5055678;28;20212;-71
2022/12/07 01:17:54;;;;;;;13.20;5.77;;;;;;;4.04;100.00;96222.81;5056779;28;20207;-72
2022/12/07 01:20:20;;;;;;;18.50;5.87;;;;;;;4.01;100.00;96215.28;5056015;28;20231;-71
2022/12/07 01:22:47;;;;;;;13.43;5.47;;;;;;;4.03;100.00;96223.78;5056849;28;20211;-72
2022/12/07 01:25:14;;;;;;;14.67;6.60;;;;;;;4.04;100.00;96222.00;5055728;28;20680;-71
2022/12/07 01:27:40;;;;;;;17.80;6.00;;;;;;;4.00;100.00;96224.06;5056335;28;20212;-72
2022/12/07 01:30:11;;;;;;;16.33;6.07;;;;;;;4.09;100.00;96223.25;5056605;28;20269;-72
2022/12/07 01:32:38;;;;;;;13.80;5.80;;;;;;;4.00;100.00;96226.69;5056300;28;21063;-72
2022/12/07 01:35:05;;;;;;;15.60;6.17;;;;;;;4.04;100.00;96225.44;5055769;28;20239;-72
2022/12/07 01:37:35;;;;;;;13.87;6.30;;;;;;;4.06;100.00;96226.13;5055992;28;20782;-72
2022/12/07 01:40:02;;;;;;;14.30;6.03;;;;;;;4.06;100.00;96226.13;5056957;28;20204;-72
2022/12/07 01:42:29;;;;;;;13.37;6.20;;;;;;;4.11;100.00;96226.53;5055950;28;20221;-71
2022/12/07 01:45:38;;;;;;;17.83;7.27;;;;;;;4.23;100.00;96225.44;5055365;28;20204;-72
2022/12/07 01:48:06;;;;;;;11.33;5.57;;;;;;;4.16;100.00;96229.53;5056697;28;20227;-71
2022/12/07 01:50:33;;;;;;;14.37;5.77;;;;;;;4.16;100.00;96234.75;5055710;28;20216;-71
2022/12/07 01:53:04;;;;;;;13.50;6.17;;;;;;;4.20;100.00;96230.94;5056350;28;20208;-72
2022/12/07 01:55:31;;;;;;;12.87;6.07;;;;;;;4.16;100.00;96226.94;5055937;28;20223;-72
2022/12/07 01:57:58;;;;;;;12.27;5.97;;;;;;;4.17;100.00;96222.56;5056174;28;20200;-71
2022/12/07 02:00:24;;;;;;;11.47;5.60;;;;;;;4.08;100.00;96218.97;5055791;28;20209;-71
2022/12/07 02:02:56;;;;;;;11.33;5.37;;;;;;;4.12;100.00;96212.53;5056296;28;20205;-72
2022/12/07 02:05:25;;;;;;;12.03;5.10;;;;;;;4.14;100.00;96223.66;5055393;28;20692;-72
2022/12/07 02:07:53;;;;;;;12.10;5.83;;;;;;;4.16;100.00;96226.94;5056144;28;20212;-71
2022/12/07 02:10:22;;;;;;;11.60;5.57;;;;;;;4.20;100.00;96230.09;5055681;28;20212;-72
2022/12/07 02:12:53;;;;;;;12.03;5.00;;;;;;;4.18;100.00;96225.00;5055999;28;20679;-71
2022/12/07 02:15:22;;;;;;;10.17;5.17;;;;;;;4.18;100.00;96225.00;5055246;28;20952;-71
2022/12/07 02:18:02;;;;;;;12.67;5.47;;;;;;;4.21;100.00;96227.34;5058299;28;20594;-71
2022/12/07 02:20:34;;;;;;;12.70;5.80;;;;;;;4.23;100.00;96223.63;5059631;28;20200;-72
2022/12/07 02:23:43;;;;;;;15.63;6.70;;;;;;;4.21;100.00;96216.91;5059534;28;20200;-71
2022/12/07 02:26:33;;;;;;;13.97;6.00;;;;;;;3.94;100.00;96216.78;5043259;28;20735;-71
2022/12/07 02:29:14;;;;;;;14.80;7.07;;;;;;;3.92;100.00;96221.34;5059713;28;20205;-72
2022/12/07 02:31:46;;;;;;;11.23;4.90;;;;;;;3.96;100.00;96214.88;5059501;28;20683;-71
2022/12/07 02:34:20;;;;;;;15.40;5.83;;;;;;;3.99;100.00;96217.19;5058705;28;20201;-71
2022/12/07 02:36:53;;;;;;;19.00;6.97;;;;;;;3.94;100.00;96213.38;5059158;28;20223;-69
2022/12/07 02:39:29;;;;;;;15.37;6.73;;;;;;;4.00;100.00;96218.84;5059588;28;20694;-70
2022/12/07 02:42:01;;;;;;;14.80;6.57;;;;;;;3.95;100.00;96221.03;5059555;28;20228;-69
2022/12/07 02:44:31;;;;;;;16.50;7.03;;;;;;;3.99;100.00;96212.00;5059191;28;20200;-72
2022/12/07 02:47:03;;;;;;;17.53;6.60;;;;;;;4.06;100.00;96218.31;5058997;28;20232;-69
2022/12/07 02:49:31;;;;;;;15.30;6.43;;;;;;;4.04;100.00;96214.19;5059154;28;20208;-71
2022/12/07 02:51:57;;;;;;;16.70;6.53;;;;;;;3.97;100.00;96213.94;5059349;28;20215;-69
2022/12/07 02:54:24;;;;;;;15.33;7.13;;;;;;;3.87;100.00;96210.50;5059481;28;20218;-71
2022/12/07 02:56:54;;;;;;;17.37;7.20;;;;;;;3.99;100.00;96206.78;5059115;28;20243;-71
2022/12/07 02:59:30;;;;;;;19.67;6.57;;;;;;;4.00;100.00;96205.00;5058728;28;20204;-70
2022/12/07 03:02:12;;;;;;;17.57;7.07;;;;;;;3.99;100.00;96196.34;5062053;28;20231;-70
2022/12/07 03:04:51;;;;;;;18.40;7.13;;;;;;;3.99;100.00;96198.94;5058058;28;20223;-72
2022/12/07 03:07:27;;;;;;;19.73;7.67;;;;;;;4.11;100.00;96210.06;5057887;28;20619;-71
2022/12/07 03:10:01;;;;;;;19.33;6.70;;;;;;;4.02;100.00;96205.69;5059465;28;20233;-71
2022/12/07 03:12:33;;;;;;;19.93;7.40;;;;;;;4.03;100.00;96202.13;5058404;28;20200;-69
2022/12/07 03:15:03;;;;;;;14.80;7.13;;;;;;;4.03;100.00;96209.94;5058843;28;20209;-72
2022/12/07 03:17:34;;;;;;;17.90;6.70;;;;;;;4.01;100.00;96201.41;5059354;28;20221;-72
2022/12/07 03:20:05;;;;;;;21.50;7.80;;;;;;;3.99;100.00;96206.78;5059235;28;20220;-71
2022/12/07 03:22:35;;;;;;;17.77;6.70;;;;;;;3.89;100.00;96203.34;5058483;28;20952;-71
2022/12/07 03:25:07;;;;;;;15.63;6.87;;;;;;;3.92;100.00;96203.09;5058240;28;20238;-71
2022/12/07 03:27:36;;;;;;;19.50;6.77;;;;;;;3.99;100.00;96209.38;5058571;28;20780;-71
2022/12/07 03:30:06;;;;;;;18.23;7.27;;;;;;;4.02;100.00;96209.13;5057868;28;20204;-70
2022/12/07 03:32:38;;;;;;;15.60;6.43;;;;;;;3.95;100.00;96202.81;5058695;28;20653;-70
2022/12/07 03:35:09;;;;;;;16.67;6.40;;;;;;;4.01;100.00;96210.06;5057962;28;20208;-72
2022/12/07 03:37:41;;;;;;;16.80;5.87;;;;;;;3.89;100.00;96205.94;5058544;28;20212;-71
2022/12/07 03:40:14;;;;;;;19.00;6.40;;;;;;;3.97;100.00;96208.72;5058513;28;20201;-69
2022/12/07 03:42:41;;;;;;;20.60;7.20;;;;;;;3.93;100.00;96211.72;5059116;28;20269;-70
2022/12/07 03:45:09;;;;;;;20.17;7.43;;;;;;;4.01;100.00;96209.25;5057279;28;20212;-72
2022/12/07 03:47:46;;;;;;;18.20;6.73;;;;;;;4.09;100.00;96206.78;5054679;28;20983;-70
2022/12/07 03:50:20;;;;;;;19.90;6.97;;;;;;;4.05;100.00;96201.00;5057655;28;20235;-69
2022/12/07 03:52:51;;;;;;;17.20;6.77;;;;;;;4.01;100.00;96199.66;5057902;28;20208;-72
2022/12/07 03:55:23;;;;;;;21.90;6.20;;;;;;;4.05;100.00;96201.00;5057305;28;20205;-70
2022/12/07 03:57:54;;;;;;;15.90;6.70;;;;;;;3.92;100.00;96200.47;5058227;28;20205;-72
2022/12/07 04:00:21;;;;;;;18.10;6.93;;;;;;;3.90;100.00;96207.59;5057940;28;20204;-71
2022/12/07 04:02:52;;;;;;;20.93;7.57;;;;;;;4.02;100.00;96209.13;5058153;28;20234;-71
2022/12/07 04:05:19;;;;;;;21.13;6.87;;;;;;;4.00;100.00;96211.03;5057885;28;20585;-72
2022/12/07 04:07:45;;;;;;;17.10;7.30;;;;;;;3.95;100.00;96209.81;5057878;28;20213;-71
2022/12/07 04:10:13;;;;;;;17.30;7.10;;;;;;;4.01;100.00;96207.47;5057140;28;20204;-69
2022/12/07 04:12:39;;;;;;;17.20;7.00;;;;;;;3.99;100.00;96208.56;5058649;28;20189;-71
2022/12/07 04:15:07;;;;;;;19.33;7.43;;;;;;;4.05;100.00;96200.19;5057764;28;20208;-70
2022/12/07 04:17:34;;;;;;;17.63;7.37;;;;;;;4.08;100.00;96195.50;5057157;28;20904;-71
2022/12/07 04:20:02;;;;;;;21.43;7.47;;;;;;;4.19;100.00;96194.53;5057704;28;20201;-71
2022/12/07 04:22:28;;;;;;;20.87;7.07;;;;;;;4.05;100.00;96193.19;5058330;28;20217;-71
2022/12/07 04:24:55;;;;;;;17.10;7.27;;;;;;;3.73;100.00;96200.47;5056365;28;20557;-70
2022/12/07 04:27:21;;;;;;;19.43;7.63;;;;;;;3.92;100.00;96194.44;5057200;28;20239;-69
2022/12/07 04:29:48;;;;;;;16.90;7.67;;;;;;;3.92;100.00;96200.47;5058038;28;20200;-72
2022/12/07 04:32:15;;;;;;;25.00;9.20;;;;;;;3.93;100.00;96196.88;5057834;28;20200;-71
2022/12/07 04:34:41;;;;;;;23.50;8.90;;;;;;;3.92;100.00;96195.28;5056681;28;20204;-71
2022/12/07 04:37:09;;;;;;;24.10;8.07;;;;;;;3.99;100.00;96196.34;5057673;28;20224;-72
2022/12/07 04:39:36;;;;;;;17.00;7.77;;;;;;;3.83;100.00;96190.03;5057129;28;20208;-69
2022/12/07 04:42:02;;;;;;;21.67;7.50;;;;;;;3.83;100.00;96188.28;5057534;28;20378;-69
2022/12/07 04:44:30;;;;;;;18.90;7.60;;;;;;;3.80;100.00;96193.75;5057255;28;20215;-71
2022/12/07 04:46:57;;;;;;;18.33;7.50;;;;;;;3.59;100.00;96194.00;5057253;28;20696;-72
2022/12/07 04:49:24;;;;;;;18.90;7.70;;;;;;;3.80;100.00;96187.72;5056686;28;20200;-71
2022/12/07 04:51:51;;;;;;;17.63;7.23;;;;;;;3.87;100.00;96192.25;5057345;28;20200;-69
2022/12/07 04:54:19;;;;;;;38.77;12.40;;;;;;;3.78;100.00;96192.22;5056467;28;20205;-69
2022/12/07 04:56:45;;;;;;;35.53;10.50;;;;;;;3.80;100.00;96196.34;5056462;28;21156;-71
2022/12/07 04:59:13;;;;;;;49.23;13.70;;;;;;;3.82;100.00;96191.84;5056992;28;20265;-71
2022/12/07 05:01:40;;;;;;;42.00;12.87;;;;;;;3.86;100.00;96193.19;5056825;28;21067;-72
2022/12/07 05:04:06;;;;;;;33.53;13.50;;;;;;;3.87;100.00;96194.84;5055948;28;20204;-71
2022/12/07 05:06:33;;;;;;;23.80;8.87;;;;;;;3.87;100.00;96197.47;5057373;28;20220;-72
2022/12/07 05:09:00;;;;;;;20.63;8.17;;;;;;;3.83;100.00;96190.03;5057764;28;20208;-71
2022/12/07 05:11:40;;;;;;;19.13;7.63;;;;;;;3.90;100.00;96191.97;5056524;28;21095;-72
2022/12/07 05:14:10;;;;;;;22.90;8.40;;;;;;;3.97;100.00;96193.06;5056256;28;20208;-71
2022/12/07 05:16:37;;;;;;;24.47;8.90;;;;;;;3.94;100.00;96197.72;5056619;28;20597;-72
2022/12/07 05:19:04;;;;;;;19.37;7.07;;;;;;;3.88;100.00;96191.28;5056623;28;20211;-69
2022/12/07 05:21:31;;;;;;;23.80;8.87;;;;;;;3.80;100.00;96191.13;5056965;28;20207;-72
2022/12/07 05:23:57;;;;;;;20.93;8.23;;;;;;;3.78;100.00;96189.63;5056986;28;20200;-71
2022/12/07 05:26:24;;;;;;;19.37;7.47;;;;;;;3.72;100.00;96188.41;5056531;28;20234;-69
2022/12/07 05:28:53;;;;;;;17.50;7.30;;;;;;;3.82;100.00;96184.00;5056560;28;20227;-72
2022/12/07 05:31:19;;;;;;;21.87;7.83;;;;;;;3.53;100.00;96187.56;5057549;28;20206;-72
2022/12/07 05:33:46;;;;;;;24.33;8.67;;;;;;;3.57;100.00;96182.91;5055613;28;20589;-70
2022/12/07 05:36:13;;;;;;;28.00;8.77;;;;;;;3.61;100.00;96181.69;5056934;28;20231;-72
2022/12/07 05:38:39;;;;;;;22.37;7.93;;;;;;;3.54;100.00;96189.22;5057378;28;20200;-72
2022/12/07 05:41:07;;;;;;;23.57;8.23;;;;;;;3.51;100.00;96186.88;5056086;28;20215;-69
2022/12/07 05:43:34;;;;;;;18.60;7.77;;;;;;;3.42;100.00;96184.28;5056185;28;20224;-70
2022/12/07 05:46:02;;;;;;;19.30;8.70;;;;;;;3.59;100.00;96186.19;5056743;28;20220;-71
2022/12/07 05:48:29;;;;;;;20.00;7.40;;;;;;;3.54;100.00;96181.41;5056372;28;20200;-70
2022/12/07 05:50:55;;;;;;;20.30;7.97;;;;;;;3.46;100.00;96183.03;5056852;28;20209;-69
2022/12/07 05:53:22;;;;;;;35.27;10.63;;;;;;;3.43;100.00;96185.91;5060006;28;20214;-69
2022/12/07 05:55:48;;;;;;;33.43;9.43;;;;;;;3.42;100.00;96179.88;5059795;28;20225;-71
2022/12/07 06:00:59;;;;;;;29.90;9.33;;;;;;;3.34;100.00;96190.16;5060995;28;20215;-71
2022/12/07 06:03:27;;;;;;;19.23;7.20;;;;;;;3.43;100.00;96201.56;5059927;28;20228;-72
2022/12/07 06:05:53;;;;;;;18.90;8.13;;;;;;;3.24;100.00;96202.31;5059874;28;20219;-72
2022/12/07 06:08:20;;;;;;;17.90;7.03;;;;;;;3.36;100.00;96192.59;5059640;28;20220;-72
2022/12/07 06:12:33;;;;;;;20.83;7.87;;;;;;;3.49;100.00;96190.56;5060192;28;20209;-71
2022/12/07 06:13:33;;;;;;;19.73;8.60;;;;;;;3.36;100.00;96183.03;5059173;28;20207;-71
2022/12/07 06:16:00;;;;;;;23.07;8.93;;;;;;;3.44;100.00;96192.78;5059870;28;20238;-71
2022/12/07 06:18:28;;;;;;;26.03;8.67;;;;;;;3.47;100.00;96193.31;5060088;28;20227;-71
2022/12/07 06:20:54;;;;;;;28.57;9.93;;;;;;;3.18;100.00;96195.06;5060171;28;20205;-70
2022/12/07 06:23:21;;;;;;;20.97;8.27;;;;;;;3.13;100.00;96199.00;5059381;28;20232;-71
2022/12/07 06:25:47;;;;;;;22.07;8.00;;;;;;;3.14;100.00;96196.28;5059292;28;20250;-71
2022/12/07 06:28:14;;;;;;;17.07;7.47;;;;;;;3.19;100.00;96182.84;5059845;28;20588;-71
2022/12/07 06:30:40;;;;;;;19.33;7.00;;;;;;;3.25;100.00;96190.13;5060249;28;20585;-72
2022/12/07 06:33:07;;;;;;;23.07;8.93;;;;;;;3.16;100.00;96185.75;5060105;28;20961;-71
2022/12/07 06:35:35;;;;;;;18.83;7.90;;;;;;;3.24;100.00;96188.50;5059667;28;20227;-71
2022/12/07 06:38:01;;;;;;;18.90;7.53;;;;;;;3.02;100.00;96186.91;5059704;28;20219;-71
2022/12/07 06:40:28;;;;;;;28.50;10.73;;;;;;;2.77;100.00;96191.75;5060096;28;20211;-71
2022/12/07 06:42:54;;;;;;;30.57;13.47;;;;;;;2.83;100.00;96196.44;5059300;28;20708;-70
2022/12/07 06:45:21;;;;;;;24.73;9.90;;;;;;;2.95;100.00;96191.97;5057898;28;20212;-71
2022/12/07 06:47:48;;;;;;;21.60;9.00;;;;;;;3.00;100.00;96195.81;5059598;28;20699;-71
2022/12/07 06:50:14;;;;;;;28.57;12.27;;;;;;;3.02;100.00;96199.13;5059883;28;20208;-73
2022/12/07 06:52:42;;;;;;;23.70;10.87;;;;;;;2.93;100.00;96199.06;5058971;28;20200;-73
2022/12/07 06:55:09;;;;;;;35.17;12.90;;;;;;;2.82;100.00;96188.78;5058560;28;20204;-73
2022/12/07 06:57:35;;;;;;;20.17;8.43;;;;;;;2.80;100.00;96182.88;5059338;28;20228;-73
2022/12/07 07:00:02;;;;;;;20.30;7.40;;;;;;;2.82;100.00;96191.38;5058836;28;20215;-73
2022/12/07 07:02:29;;;;;;;22.00;9.07;;;;;;;2.85;100.00;96191.13;5058888;28;20220;-74
2022/12/07 07:04:55;;;;;;;18.37;7.73;;;;;;;2.70;100.00;96195.84;5057232;28;20577;-74
2022/12/07 07:07:22;;;;;;;22.93;7.90;;;;;;;2.71;100.00;96192.31;5058691;28;20235;-72
2022/12/07 07:09:50;;;;;;;27.60;9.20;;;;;;;2.70;100.00;96190.66;5059149;28;20203;-72
2022/12/07 07:12:17;;;;;;;24.87;7.40;;;;;;;2.78;100.00;96193.41;5058884;28;20311;-72
2022/12/07 07:14:43;;;;;;;24.43;8.53;;;;;;;2.71;100.00;96207.06;5058900;28;20207;-73
2022/12/07 07:17:10;;;;;;;31.60;8.63;;;;;;;2.81;100.00;96211.34;5058635;28;20231;-73
2022/12/07 07:19:37;;;;;;;24.37;8.43;;;;;;;2.86;100.00;96203.16;5058543;28;20199;-73
2022/12/07 07:22:03;;;;;;;18.63;7.20;;;;;;;2.88;100.00;96209.91;5058933;28;20207;-73
2022/12/07 07:24:30;;;;;;;23.60;9.10;;;;;;;2.92;100.00;96213.88;5057883;28;20219;-73
2022/12/07 07:26:58;;;;;;;22.40;8.53;;;;;;;2.83;100.00;96232.88;5058689;28;20317;-73
2022/12/07 07:29:24;;;;;;;17.73;6.77;;;;;;;2.89;100.00;96232.38;5058693;28;20228;-73
2022/12/07 07:31:51;;;;;;;14.63;6.67;;;;;;;2.77;100.00;96219.56;5058559;28;20208;-73
2022/12/07 07:34:17;;;;;;;19.80;8.30;;;;;;;2.90;100.00;96207.16;5057661;28;20211;-73
2022/12/07 07:36:44;;;;;;;22.27;8.10;;;;;;;3.03;100.00;96204.19;5058461;28;20226;-73
2022/12/07 07:39:12;;;;;;;17.73;7.27;;;;;;;3.09;100.00;96192.41;5058248;28;20220;-73
2022/12/07 07:41:39;;;;;;;18.70;7.30;;;;;;;2.96;100.00;96188.41;5062107;28;20200;-72
2022/12/07 07:44:06;;;;;;;23.57;8.87;;;;;;;3.18;100.00;96187.25;5058401;28;20231;-72
2022/12/07 07:46:33;;;;;;;27.40;11.03;;;;;;;3.25;100.00;96192.75;5058614;28;20216;-72
2022/12/07 07:49:00;;;;;;;28.07;11.00;;;;;;;3.42;100.00;96187.69;5058276;28;20211;-72
2022/12/07 07:51:26;;;;;;;44.30;14.30;;;;;;;3.45;100.00;96197.00;5057480;28;20295;-72
2022/12/07 07:53:53;;;;;;;32.70;11.77;;;;;;;3.50;100.00;96194.81;5058844;28;20201;-73
2022/12/07 07:56:19;;;;;;;35.57;12.60;;;;;;;3.41;100.00;96191.28;5059034;28;20227;-71
2022/12/07 07:58:46;;;;;;;37.90;14.87;;;;;;;3.59;100.00;96196.63;5060552;28;20211;-72
2022/12/07 08:01:14;;;;;;;26.70;9.63;;;;;;;3.61;100.00;96200.72;5059763;28;20211;-70
2022/12/07 08:03:41;;;;;;;26.20;9.40;;;;;;;3.57;100.00;96204.56;5057550;28;20231;-73
2022/12/07 08:06:08;;;;;;;30.13;10.63;;;;;;;3.62;99.98;96198.97;5057481;28;20227;-73
2022/12/07 08:08:34;;;;;;;20.27;9.20;;;;;;;3.89;100.00;96198.13;5057916;28;20222;-73
2022/12/07 08:11:01;;;;;;;20.63;7.33;;;;;;;3.82;99.85;96202.25;5058720;28;20200;-72
2022/12/07 08:13:28;;;;;;;21.23;7.53;;;;;;;3.93;99.44;96207.31;5057663;28;20211;-72
2022/12/07 08:15:54;;;;;;;20.70;8.33;;;;;;;4.04;97.40;96209.78;5056844;28;20227;-72
2022/12/07 08:18:22;;;;;;;25.80;8.50;;;;;;;4.26;95.30;96209.50;5058930;28;20204;-72
2022/12/07 08:20:49;;;;;;;16.23;6.77;;;;;;;4.20;95.05;96209.22;5057503;28;20208;-72
2022/12/07 08:23:15;;;;;;;14.57;5.43;;;;;;;4.32;94.86;96219.38;5057222;28;20228;-72
2022/12/07 08:25:42;;;;;;;12.53;5.83;;;;;;;4.41;94.06;96224.56;5056450;28;20224;-72
2022/12/07 08:28:09;;;;;;;16.27;6.83;;;;;;;4.43;94.90;96229.63;5057343;28;20205;-72
2022/12/07 08:30:35;;;;;;;11.53;4.50;;;;;;;4.29;99.33;96246.56;5056704;28;20210;-72
2022/12/07 08:33:02;;;;;;;13.93;5.70;;;;;;;4.34;99.01;96240.91;5057468;28;20200;-72
2022/12/07 08:35:30;;;;;;;14.83;5.47;;;;;;;4.38;94.81;96242.31;5055779;28;20204;-72
2022/12/07 08:37:57;;;;;;;11.87;5.07;;;;;;;4.08;93.97;96242.44;5056166;28;20211;-72
2022/12/07 08:40:24;;;;;;;12.37;4.50;;;;;;;4.22;94.96;96239.41;5055840;28;20251;-72
2022/12/07 08:42:51;;;;;;;12.00;5.10;;;;;;;4.20;96.23;96241.34;5055743;28;20224;-72
2022/12/07 08:45:19;;;;;;;14.50;5.63;;;;;;;4.23;94.63;96236.66;5055361;28;20234;-72
2022/12/07 08:47:50;;;;;;;16.07;6.37;;;;;;;4.47;93.28;96244.88;5055369;28;20387;-72
2022/12/07 08:50:17;;;;;;;13.13;4.83;;;;;;;4.41;92.55;96247.22;5055700;28;20214;-72
2022/12/07 08:52:51;;;;;;;12.77;5.40;;;;;;;4.39;92.12;96251.75;5055816;28;20205;-72
2022/12/07 08:55:18;;;;;;;8.60;3.70;;;;;;;4.23;90.81;96251.50;5055579;28;20204;-71
2022/12/07 08:57:44;;;;;;;11.07;5.13;;;;;;;4.31;90.52;96249.03;5056380;28;20209;-72
2022/12/07 09:00:12;;;;;;;11.07;4.77;;;;;;;4.40;91.08;96253.41;5056268;28;20211;-71
2022/12/07 09:02:39;;;;;;;20.60;8.40;;;;;;;4.42;91.66;96251.50;5056335;28;20224;-72
2022/12/07 09:05:07;;;;;;;18.57;7.80;;;;;;;4.30;91.40;96247.38;5055282;28;20673;-72
2022/12/07 09:07:35;;;;;;;17.97;7.37;;;;;;;4.40;90.21;96245.56;5056394;28;20251;-72
2022/12/07 09:10:04;;;;;;;16.97;7.70;;;;;;;4.48;90.36;96240.47;5056193;28;20204;-72
2022/12/07 09:12:30;;;;;;;13.73;5.37;;;;;;;4.42;89.74;96248.88;5055972;28;20197;-72
2022/12/07 09:14:57;;;;;;;12.03;5.90;;;;;;;4.49;90.19;96242.13;5055729;28;20208;-72
2022/12/07 09:17:24;;;;;;;17.67;7.30;;;;;;;4.52;89.93;96244.44;5056092;28;20728;-72
2022/12/07 09:19:50;;;;;;;22.50;6.77;;;;;;;4.56;90.73;96238.00;5055942;28;20574;-72
2022/12/07 09:22:17;;;;;;;19.50;6.20;;;;;;;4.63;89.73;96241.69;5056247;28;20976;-72
2022/12/07 09:24:45;;;;;;;16.00;5.40;;;;;;;4.63;89.03;96244.28;5056057;28;20224;-72
2022/12/07 09:27:13;;;;;;;14.80;4.60;;;;;;;4.61;88.41;96244.44;5057704;28;20311;-72
2022/12/07 09:29:40;;;;;;;8.30;3.93;;;;;;;4.59;85.82;96245.53;5060342;28;20209;-72
2022/12/07 09:32:06;;;;;;;10.90;4.57;;;;;;;4.56;85.37;96244.03;5060711;28;20504;-71
2022/12/07 09:34:33;;;;;;;9.70;4.00;;;;;;;4.61;86.64;96241.84;5059679;28;20952;-71
2022/12/07 09:37:02;;;;;;;12.73;4.60;;;;;;;4.73;86.11;96234.66;5059594;28;20220;-71
2022/12/07 09:39:29;;;;;;;10.80;4.83;;;;;;;4.77;84.74;96241.25;5059703;28;20203;-72
2022/12/07 09:41:58;;;;;;;14.70;5.33;;;;;;;4.78;83.22;96237.69;5060069;28;20544;-71
2022/12/07 09:44:28;;;;;;;6.47;3.10;;;;;;;4.80;83.26;96230.50;5058777;28;20498;-71
2022/12/07 09:46:56;;;;;;;6.87;2.97;;;;;;;4.77;82.42;96231.63;5058832;28;20232;-71
2022/12/07 09:49:25;;;;;;;11.53;4.07;;;;;;;4.97;83.59;96225.38;5060681;28;20196;-72
2022/12/07 09:52:02;;;;;;;7.43;3.57;;;;;;;4.80;81.77;96233.97;5059347;28;20205;-72
2022/12/07 09:54:30;;;;;;;18.80;3.23;;;;;;;4.64;81.55;96235.50;5057965;28;20295;-71
2022/12/07 09:56:57;;;;;;;7.23;2.73;;;;;;;4.60;81.20;96223.72;5059020;28;20226;-71
2022/12/07 09:59:23;;;;;;;7.37;3.43;;;;;;;4.63;83.43;96215.59;5059756;28;20204;-72
2022/12/07 10:01:51;;;;;;;7.90;3.57;;;;;;;4.69;83.06;96220.25;5059738;28;20672;-72
2022/12/07 10:04:21;;;;;;;11.80;4.40;;;;;;;4.83;84.09;96216.19;5058835;28;20231;-72
2022/12/07 10:06:50;;;;;;;10.33;3.60;;;;;;;4.74;82.48;96212.81;5059811;28;20243;-72
2022/12/07 10:09:19;;;;;;;8.17;3.37;;;;;;;4.75;80.52;96215.28;5060099;28;20200;-73
2022/12/07 10:12:03;;;;;;;7.00;2.77;;;;;;;4.82;81.47;96203.31;5060269;28;20204;-73
2022/12/07 10:14:31;;;;;;;8.60;3.10;;;;;;;4.81;81.09;96206.06;5059301;28;20653;-73
2022/12/07 10:17:00;;;;;;;6.97;3.97;;;;;;;4.69;80.96;96207.22;5059399;28;20227;-73
2022/12/07 10:19:28;;;;;;;6.93;3.33;;;;;;;4.89;81.17;96205.19;5057953;28;20215;-73
2022/12/07 10:22:04;;;;;;;5.40;2.63;;;;;;;4.80;80.67;96201.78;5058124;28;20200;-73
2022/12/07 10:24:31;;;;;;;11.93;2.90;;;;;;;4.76;81.39;96197.81;5057519;28;20216;-73
2022/12/07 10:26:58;;;;;;;11.30;3.87;;;;;;;4.77;82.03;96209.91;5057984;28;20224;-72
2022/12/07 10:29:30;;;;;;;6.57;3.13;;;;;;;4.85;81.31;96213.47;5058363;28;20208;-73
2022/12/07 10:32:01;;;;;;;9.57;3.50;;;;;;;4.76;82.00;96198.66;5058198;28;20204;-73
2022/12/07 10:34:30;;;;;;;6.40;2.77;;;;;;;4.77;83.08;96202.09;5057088;28;20201;-73
2022/12/07 10:37:15;;;;;;;9.47;3.33;;;;;;;4.81;82.83;96196.44;5057587;28;20228;-73
2022/12/07 10:39:44;;;;;;;6.97;3.30;;;;;;;4.81;84.28;96193.81;5058181;28;20632;-73
2022/12/07 10:42:18;;;;;;;4.33;2.03;;;;;;;4.91;80.79;96192.84;5058528;28;20204;-73
2022/12/07 10:44:45;;;;;;;7.50;3.17;;;;;;;4.82;80.86;96193.69;5056313;28;20223;-72
2022/12/07 10:47:37;;;;;;;6.43;3.00;;;;;;;4.96;79.68;96182.78;5057051;28;20231;-72
2022/12/07 10:50:30;;;;;;;2.97;1.47;;;;;;;5.00;79.36;96175.47;5057381;28;20205;-72
2022/12/07 10:53:12;;;;;;;7.17;3.13;;;;;;;4.99;78.96;96174.66;5057388;28;20216;-73
2022/12/07 10:55:55;;;;;;;15.33;5.43;;;;;;;5.07;80.96;96176.53;5056951;28;20227;-72
2022/12/07 10:58:37;;;;;;;7.57;3.37;;;;;;;5.25;79.56;96170.38;5058278;28;20200;-72
2022/12/07 11:01:10;;;;;;;9.63;2.80;;;;;;;5.21;80.95;96163.00;5057881;28;20204;-71
2022/12/07 11:04:03;;;;;;;5.77;3.07;;;;;;;5.36;80.82;96166.75;5056919;28;20221;-71
2022/12/07 11:06:36;;;;;;;5.30;2.40;;;;;;;5.34;81.26;96168.69;5057518;28;20216;-72
2022/12/07 11:09:21;;;;;;;6.87;3.40;;;;;;;5.50;80.56;96165.28;5057642;28;20203;-71
2022/12/07 11:11:58;;;;;;;8.93;3.60;;;;;;;5.52;79.32;96157.28;5056705;28;20208;-71
2022/12/07 11:14:37;;;;;;;5.47;2.90;;;;;;;5.42;78.40;96159.13;5056413;28;20215;-71
2022/12/07 11:17:08;;;;;;;7.33;3.20;;;;;;;5.41;78.66;96154.06;5056263;28;20234;-72
2022/12/07 11:19:59;;;;;;;7.87;2.73;;;;;;;5.05;79.58;96168.03;5057917;28;20210;-72
2022/12/07 11:22:35;;;;;;;8.47;3.30;;;;;;;5.11;80.20;96152.59;5057085;28;20713;-72
2022/12/07 11:25:23;;;;;;;9.00;3.50;;;;;;;5.32;78.75;96150.56;5056296;28;20220;-72
2022/12/07 11:28:00;;;;;;;7.47;3.23;;;;;;;5.49;77.50;96141.91;5056623;28;20208;-72
2022/12/07 11:30:34;;;;;;;11.37;3.40;;;;;;;5.44;78.49;96149.38;5057175;28;20227;-71
2022/12/07 11:33:11;;;;;;;10.60;4.10;;;;;;;5.39;77.55;96148.19;5057114;28;20204;-72
2022/12/07 11:35:51;;;;;;;10.93;4.07;;;;;;;5.54;77.98;96145.72;5055584;28;20708;-72
2022/12/07 11:38:22;;;;;;;8.80;3.80;;;;;;;5.54;76.55;96142.28;5056327;28;20305;-71
2022/12/07 11:40:52;;;;;;;1.77;1.37;;;;;;;5.32;75.88;96142.72;5056844;28;20207;-72
2022/12/07 11:43:26;;;;;;;13.63;4.70;;;;;;;5.40;76.01;96148.03;5056553;28;20212;-71